Time;durP1;ratioP1;P1;durP2;ratioP2;P2;SDS_P1;SDS_P2;PMS_P1;PMS_P2;Temp;Humidity;BMP_temperature;BMP_pressure;BME280_temperature;BME280_humidity;BME280_pressure;Samples;Min_cycle;Max_cycle;Signal;HPM_P1;HPM_P2
2021/12/17 00:04:27;;;;;;;;;;;;;;;7.67;100.00;104019.13;5008902;28;19929;-76
2021/12/17 00:06:53;;;;;;;;;;;;;;;7.65;100.00;104014.66;5007252;28;19917;-75
2021/12/17 00:09:18;;;;;;;;;;;;;;;7.64;100.00;104012.81;5004340;28;20361;-76
2021/12/17 00:11:43;;;;;;;;;;;;;;;7.65;100.00;104012.09;5008019;28;19929;-76
2021/12/17 00:14:10;;;;;;;;;;;;;;;7.65;100.00;104012.09;5008432;28;19928;-76
2021/12/17 00:16:39;;;;;;;;;;;;;;;7.65;100.00;104009.53;5008105;28;19976;-75
2021/12/17 00:19:18;;;;;;;;;;;;;;;7.68;100.00;104014.91;5007042;28;19936;-75
2021/12/17 00:48:54;;;;;;;;;;;;;;;7.67;100.00;104002.88;5002450;28;19980;-75
2021/12/17 00:54:06;;;;;;;;;;;;;;;7.70;100.00;104013.38;5009153;28;19923;-75
2021/12/17 00:56:32;;;;;;;;;;;;;;;7.69;100.00;104014.13;5001844;28;19917;-75
2021/12/17 00:58:57;;;;;;;;;;;;;;;7.70;100.00;104016.81;5005203;28;20352;-76
2021/12/17 01:01:22;;;;;;;;;;;;;;;7.71;100.00;104003.28;5006145;28;19929;-75
2021/12/17 01:03:49;;;;;;;;;;;;;;;7.72;100.00;104009.31;5006195;28;19925;-76
2021/12/17 01:06:14;;;;;;;;;;;;;;;7.73;100.00;104013.66;5006746;28;19930;-76
2021/12/17 01:08:39;;;;;;;;;;;;;;;7.74;100.00;104013.78;5002313;28;19968;-75
2021/12/17 01:11:05;;;;;;;;;;;;;;;7.74;100.00;104006.09;5006339;28;19922;-75
2021/12/17 01:13:31;;;;;;;;;;;;;;;7.76;100.00;104007.13;5005314;28;19925;-75
2021/12/17 01:15:56;;;;;;;;;;;;;;;7.76;100.00;103996.88;5005662;28;19925;-76
2021/12/17 01:18:25;;;;;;;;;;;;;;;7.75;100.00;103995.09;5004325;28;21126;-75
2021/12/17 01:24:01;;;;;;;;;;;;;;;7.75;100.00;103994.19;5004757;28;19980;-76
2021/12/17 01:42:33;;;;;;;;;;;;;;;7.59;100.00;103988.47;5006536;28;19941;-75
2021/12/17 01:44:59;;;;;;;;;;;;;;;7.57;100.00;103988.31;5006670;28;19921;-75
2021/12/17 01:47:24;;;;;;;;;;;;;;;7.58;100.00;103985.00;5005144;28;19925;-75
2021/12/17 02:00:16;;;;;;;;;;;;;;;7.64;100.00;103982.09;5004012;28;20678;-76
2021/12/17 02:02:47;;;;;;;;;;;;;;;7.66;100.00;103990.84;5005743;28;19921;-75
2021/12/17 02:05:13;;;;;;;;;;;;;;;7.67;100.00;103984.94;5006945;28;19967;-75
2021/12/17 02:07:39;;;;;;;;;;;;;;;7.69;100.00;103994.53;5005385;28;19924;-76
2021/12/17 02:21:27;;;;;;;;;;;;;;;7.72;100.00;103991.38;5005745;28;19928;-76
2021/12/17 02:31:59;;;;;;;;;;;;;;;7.72;100.00;103993.94;5008088;28;19964;-75
2021/12/17 02:36:52;;;;;;;;;;;;;;;7.72;100.00;103999.97;5010667;28;20446;-76
2021/12/17 02:47:34;;;;;;;;;;;;;;;7.74;100.00;103995.88;5008453;28;19972;-75
2021/12/17 02:49:59;;;;;;;;;;;;;;;7.74;100.00;103992.41;5010270;28;19964;-76
2021/12/17 02:52:29;;;;;;;;;;;;;;;7.74;100.00;103998.41;5009665;28;19929;-76
2021/12/17 02:54:57;;;;;;;;;;;;;;;7.73;100.00;103996.63;5007412;28;19928;-75
2021/12/17 02:57:23;;;;;;;;;;;;;;;7.73;100.00;103995.72;5008776;28;20285;-76
2021/12/17 02:59:48;;;;;;;;;;;;;;;7.74;100.00;104000.09;5007403;28;19918;-76
2021/12/17 03:02:14;;;;;;;;;;;;;;;7.75;100.00;103997.66;5009865;28;19936;-76
2021/12/17 03:04:40;;;;;;;;;;;;;;;7.74;100.00;103998.41;5006464;28;20372;-75
2021/12/17 03:07:06;;;;;;;;;;;;;;;7.73;100.00;103999.19;5008239;28;19929;-76
2021/12/17 03:12:20;;;;;;;;;;;;;;;7.72;100.00;103986.25;5009735;28;19921;-76
2021/12/17 03:15:01;;;;;;;;;;;;;;;7.72;100.00;103983.69;5006985;28;19925;-76
2021/12/17 03:18:04;;;;;;;;;;;;;;;7.72;100.00;103979.47;5009225;28;19929;-76
2021/12/17 03:25:45;;;;;;;;;;;;;;;7.68;100.00;103996.97;5004056;28;20379;-76
2021/12/17 03:28:10;;;;;;;;;;;;;;;7.66;100.00;103998.50;5003902;28;19929;-75
2021/12/17 03:30:36;;;;;;;;;;;;;;;7.64;100.00;104002.56;5006507;28;20513;-76
2021/12/17 03:33:01;;;;;;;;;;;;;;;7.65;100.00;103997.63;5007675;28;19940;-75
2021/12/17 03:35:27;;;;;;;;;;;;;;;7.65;100.00;104002.75;5007013;28;19928;-76
2021/12/17 03:37:52;;;;;;;;;;;;;;;7.68;100.00;103997.88;5007905;28;19925;-76
2021/12/17 03:40:19;;;;;;;;;;;;;;;7.69;100.00;103994.53;5004664;28;20406;-76
2021/12/17 03:42:48;;;;;;;;;;;;;;;7.71;100.00;103995.59;5003277;28;19921;-76
2021/12/17 03:45:17;;;;;;;;;;;;;;;7.70;100.00;103991.22;5006287;28;19921;-75
2021/12/17 03:47:43;;;;;;;;;;;;;;;7.70;100.00;104000.56;5008747;28;19925;-75
2021/12/17 03:50:09;;;;;;;;;;;;;;;7.72;100.00;104006.75;5006662;28;20335;-75
2021/12/17 03:52:34;;;;;;;;;;;;;;;7.70;100.00;103998.00;5005742;28;19921;-75
2021/12/17 03:55:00;;;;;;;;;;;;;;;7.68;100.00;104000.44;5005697;28;19972;-76
2021/12/17 03:57:25;;;;;;;;;;;;;;;7.68;100.00;104008.13;5005043;28;19929;-76
2021/12/17 03:59:51;;;;;;;;;;;;;;;7.67;100.00;104005.44;5003850;28;19929;-76
2021/12/17 04:02:16;;;;;;;;;;;;;;;7.68;100.00;103991.84;5002817;28;19948;-76
2021/12/17 04:04:42;;;;;;;;;;;;;;;7.69;100.00;103993.66;5006914;28;19936;-76
2021/12/17 04:07:07;;;;;;;;;;;;;;;7.69;100.00;103993.66;5006476;28;20004;-76
2021/12/17 04:09:32;;;;;;;;;;;;;;;7.70;100.00;103992.88;5004325;28;19921;-76
2021/12/17 04:12:00;;;;;;;;;;;;;;;7.69;100.00;103989.41;5003265;28;20029;-76
2021/12/17 04:14:34;;;;;;;;;;;;;;;7.71;100.00;103992.16;5005021;28;20414;-76
2021/12/17 04:17:03;;;;;;;;;;;;;;;7.71;100.00;103992.16;5001547;28;19918;-76
2021/12/17 04:19:29;;;;;;;;;;;;;;;7.70;100.00;103995.44;5004241;28;19930;-76
2021/12/17 04:21:54;;;;;;;;;;;;;;;7.70;100.00;103998.91;5005226;28;19937;-76
2021/12/17 04:24:19;;;;;;;;;;;;;;;7.70;100.00;103998.00;5003145;28;19928;-75
2021/12/17 04:26:45;;;;;;;;;;;;;;;7.66;100.00;103994.28;5001893;28;19934;-75
2021/12/17 04:29:10;;;;;;;;;;;;;;;7.65;100.00;103991.59;5002769;28;19941;-75
2021/12/17 04:31:35;;;;;;;;;;;;;;;7.63;100.00;103996.56;5002160;28;19966;-76
2021/12/17 04:34:01;;;;;;;;;;;;;;;7.62;100.00;103997.31;5003695;28;20373;-76
2021/12/17 04:36:30;;;;;;;;;;;;;;;7.61;100.00;104000.66;5001964;28;20004;-76
2021/12/17 04:38:57;;;;;;;;;;;;;;;7.60;100.00;104001.41;5001965;28;19930;-76
2021/12/17 04:41:47;;;;;;;;;;;;;;;7.61;100.00;103999.75;5003799;28;20411;-76
2021/12/17 04:44:17;;;;;;;;;;;;;;;7.60;100.00;104000.53;5004028;28;20726;-75
2021/12/17 04:57:25;;;;;;;;;;;;;;;7.59;100.00;103998.72;5000420;28;19964;-75
2021/12/17 04:59:50;;;;;;;;;;;;;;;7.58;100.00;103994.34;4999956;28;19929;-76
2021/12/17 05:02:17;;;;;;;;;;;;;;;7.57;100.00;103992.53;5002584;28;19952;-75
2021/12/17 05:04:43;;;;;;;;;;;;;;;7.57;100.00;103990.00;5004465;28;20393;-75
2021/12/17 05:07:11;;;;;;;;;;;;;;;7.58;100.00;103989.22;5002309;28;19925;-76
2021/12/17 05:09:46;;;;;;;;;;;;;;;7.56;100.00;104001.00;5001607;28;19937;-76
2021/12/17 05:20:24;;;;;;;;;;;;;;;7.54;100.00;103995.75;5003936;28;19929;-77
2021/12/17 05:22:55;;;;;;;;;;;;;;;7.51;100.00;104004.03;5004025;28;19922;-76
2021/12/17 05:25:21;;;;;;;;;;;;;;;7.48;100.00;104005.44;5002642;28;19944;-77
2021/12/17 05:27:46;;;;;;;;;;;;;;;7.47;100.00;104007.09;5002155;28;19929;-77
2021/12/17 05:30:12;;;;;;;;;;;;;;;7.47;100.00;104003.63;5002277;28;20542;-76
2021/12/17 05:32:37;;;;;;;;;;;;;;;7.48;100.00;104010.56;5000213;28;19921;-77
2021/12/17 05:35:02;;;;;;;;;;;;;;;7.46;100.00;104005.31;5000315;28;20359;-76
2021/12/17 05:37:28;;;;;;;;;;;;;;;7.45;100.00;104011.16;5001525;28;19957;-77
2021/12/17 05:39:54;;;;;;;;;;;;;;;7.47;100.00;104014.78;5002996;28;19929;-77
2021/12/17 05:42:20;;;;;;;;;;;;;;;7.44;100.00;104005.91;4999443;28;20060;-76
2021/12/17 05:44:51;;;;;;;;;;;;;;;7.42;100.00;104002.31;4999615;28;20024;-76
2021/12/17 05:47:16;;;;;;;;;;;;;;;7.42;100.00;104000.66;4998680;28;19925;-76
2021/12/17 05:49:41;;;;;;;;;;;;;;;7.41;100.00;103996.31;5001541;28;19925;-76
2021/12/17 05:52:07;;;;;;;;;;;;;;;7.41;100.00;104001.41;5000647;28;19917;-76
2021/12/17 05:54:32;;;;;;;;;;;;;;;7.41;100.00;104003.97;5001654;28;19991;-76
2021/12/17 05:56:58;;;;;;;;;;;;;;;7.41;100.00;104011.66;5002746;28;20227;-76
2021/12/17 05:59:23;;;;;;;;;;;;;;;7.38;100.00;104003.69;5005517;28;19952;-76
2021/12/17 06:01:48;;;;;;;;;;;;;;;7.38;100.00;104016.50;5004578;28;20162;-76
2021/12/17 06:04:14;;;;;;;;;;;;;;;7.38;100.00;104024.16;5006130;28;19925;-77
2021/12/17 06:06:41;;;;;;;;;;;;;;;7.36;100.00;104020.56;5005559;28;19963;-76
2021/12/17 06:09:08;;;;;;;;;;;;;;;7.37;100.00;104018.91;5005473;28;19925;-76
2021/12/17 06:11:34;;;;;;;;;;;;;;;7.36;100.00;104020.56;5004074;28;20017;-76
2021/12/17 06:14:00;;;;;;;;;;;;;;;7.36;100.00;104019.69;5005448;28;20019;-77
2021/12/17 06:16:27;;;;;;;;;;;;;;;7.36;100.00;104023.13;5003760;28;19932;-76
2021/12/17 06:18:52;;;;;;;;;;;;;;;7.34;100.00;104024.66;5006817;28;19921;-76
2021/12/17 06:21:19;;;;;;;;;;;;;;;7.32;100.00;104026.16;5002427;28;19922;-76
2021/12/17 06:23:44;;;;;;;;;;;;;;;7.30;100.00;104035.38;5004316;28;19933;-76
2021/12/17 06:26:09;;;;;;;;;;;;;;;7.30;100.00;104031.91;5006362;28;19933;-76
2021/12/17 06:28:34;;;;;;;;;;;;;;;7.30;100.00;104030.25;5004222;28;20049;-75
2021/12/17 06:31:00;;;;;;;;;;;;;;;7.30;100.00;104027.69;5005601;28;20040;-75
2021/12/17 06:33:25;;;;;;;;;;;;;;;7.30;100.00;104039.59;5004523;28;19925;-75
2021/12/17 06:35:50;;;;;;;;;;;;;;;7.29;100.00;104041.25;5006765;28;19941;-75
2021/12/17 06:38:15;;;;;;;;;;;;;;;7.28;100.00;104042.03;5005328;28;20368;-75
2021/12/17 06:40:41;;;;;;;;;;;;;;;7.28;100.00;104036.91;5004850;28;19929;-75
2021/12/17 06:43:06;;;;;;;;;;;;;;;7.26;100.00;104040.97;5005901;28;19921;-75
2021/12/17 06:45:49;;;;;;;;;;;;;;;7.25;100.00;104040.06;5007588;28;19941;-75
2021/12/17 06:48:15;;;;;;;;;;;;;;;7.24;100.00;104029.69;5002301;28;19938;-75
2021/12/17 06:59:01;;;;;;;;;;;;;;;7.22;100.00;104028.66;5003437;28;19936;-74
2021/12/17 07:09:47;;;;;;;;;;;;;;;7.22;100.00;104039.81;5004576;28;19918;-74
2021/12/17 07:17:20;;;;;;;;;;;;;;;7.25;100.00;104046.84;5006872;28;19929;-74
2021/12/17 07:35:40;;;;;;;;;;;;;;;7.29;100.00;104020.78;5005495;28;19932;-75
2021/12/17 07:40:50;;;;;;;;;;;;;;;7.30;100.00;104017.47;5006884;28;19979;-75
2021/12/17 07:43:25;;;;;;;;;;;;;;;7.28;100.00;104021.53;5003333;28;19929;-74
2021/12/17 07:45:50;;;;;;;;;;;;;;;7.28;100.00;104024.09;5004090;28;19925;-75
2021/12/17 07:48:15;;;;;;;;;;;;;;;7.28;100.00;104024.09;5005748;28;19921;-75
2021/12/17 07:50:41;;;;;;;;;;;;;;;7.30;100.00;104016.56;5006004;28;19992;-73
2021/12/17 07:53:06;;;;;;;;;;;;;;;7.31;100.00;104020.91;5002390;28;20237;-74
2021/12/17 07:55:31;;;;;;;;;;;;;;;7.30;100.00;104017.47;5003131;28;19926;-74
2021/12/17 07:57:56;;;;;;;;;;;;;;;7.31;100.00;104023.47;5005095;28;20056;-75
2021/12/17 08:00:22;;;;;;;;;;;;;;;7.32;100.00;104023.59;5005492;28;20253;-73
2021/12/17 08:02:47;;;;;;;;;;;;;;;7.33;100.00;104020.28;5003753;28;19965;-74
2021/12/17 08:05:12;;;;;;;;;;;;;;;7.34;100.00;104027.22;5003135;28;20425;-75
2021/12/17 08:07:37;;;;;;;;;;;;;;;7.37;100.00;104029.16;5001071;28;19937;-74
2021/12/17 08:10:03;;;;;;;;;;;;;;;7.36;100.00;104035.94;5001529;28;19917;-75
2021/12/17 08:12:28;;;;;;;;;;;;;;;7.38;100.00;104041.19;5004889;28;19932;-75
2021/12/17 08:14:54;;;;;;;;;;;;;;;7.39;100.00;104043.88;5004397;28;19928;-74
2021/12/17 08:25:26;;;;;;;;;;;;;;;7.43;100.00;104047.63;5004316;28;20064;-74
2021/12/17 08:28:04;;;;;;;;;;;;;;;7.44;100.00;104047.78;5002411;28;19937;-74
2021/12/17 08:30:38;;;;;;;;;;;;;;;7.43;100.00;104053.66;5006593;28;20358;-74
2021/12/17 08:33:05;;;;;;;;;;;;;;;7.43;100.00;104050.19;5006820;28;20353;-74
2021/12/17 08:35:30;;;;;;;;;;;;;;;7.40;100.00;104039.66;5003440;28;20172;-76
2021/12/17 08:37:55;;;;;;;;;;;;;;;7.42;100.00;104056.09;5004873;28;20011;-74
2021/12/17 08:40:21;;;;;;;;;;;;;;;7.42;100.00;104051.84;5001340;28;19937;-74
2021/12/17 08:42:46;;;;;;;;;;;;;;;7.45;100.00;104056.34;5005343;28;19940;-74
2021/12/17 08:45:12;;;;;;;;;;;;;;;7.45;100.00;104059.81;5003216;28;19926;-74
2021/12/17 08:47:37;;;;;;;;;;;;;;;7.46;100.00;104056.50;5003801;28;20064;-74
2021/12/17 08:50:06;;;;;;;;;;;;;;;7.46;100.00;104053.94;5001050;28;20012;-73
2021/12/17 08:52:31;;;;;;;;;;;;;;;7.48;100.00;104049.84;5000352;28;19917;-73
2021/12/17 08:54:57;;;;;;;;;;;;;;;7.53;100.00;104043.50;5004318;28;19917;-73
2021/12/17 08:57:22;;;;;;;;;;;;;;;7.56;100.00;104047.09;5002202;28;20377;-74
2021/12/17 08:59:47;;;;;;;;;;;;;;;7.56;100.00;104044.53;5008420;28;20003;-74
2021/12/17 09:02:12;;;;;;;;;;;;;;;7.56;100.00;104045.44;5008403;28;19913;-74
2021/12/17 09:04:38;;;;;;;;;;;;;;;7.55;100.00;104048.75;5005185;28;20413;-74
2021/12/17 09:07:03;;;;;;;;;;;;;;;7.58;100.00;104050.69;5007799;28;19922;-74
2021/12/17 09:09:28;;;;;;;;;;;;;;;7.58;100.00;104051.56;5008341;28;19940;-73
2021/12/17 09:11:54;;;;;;;;;;;;;;;7.59;100.00;104062.75;5006574;28;20102;-72
2021/12/17 09:14:20;;;;;;;;;;;;;;;7.59;100.00;104055.97;5007546;28;19928;-74
2021/12/17 09:16:48;;;;;;;;;;;;;;;7.60;100.00;104059.44;5005790;28;20008;-73
2021/12/17 09:19:13;;;;;;;;;;;;;;;7.61;100.00;104076.59;5008048;28;19913;-74
2021/12/17 09:21:39;;;;;;;;;;;;;;;7.59;100.00;104071.34;5003193;28;19944;-74
2021/12/17 09:24:04;;;;;;;;;;;;;;;7.60;100.00;104079.91;4982528;28;19992;-75
2021/12/17 09:26:32;;;;;;;;;;;;;;;7.60;100.00;104078.25;5004344;28;19921;-75
2021/12/17 09:28:57;;;;;;;;;;;;;;;7.63;100.00;104080.19;5007717;28;19917;-72
2021/12/17 09:31:22;;;;;;;;;;;;;;;7.65;100.00;104094.03;5004053;28;19976;-75
2021/12/17 09:33:49;;;;;;;;;;;;;;;7.69;100.00;104088.41;5003781;28;19944;-75
2021/12/17 09:36:15;;;;;;;;;;;;;;;7.72;100.00;104087.06;5006209;28;19917;-75
2021/12/17 09:38:40;;;;;;;;;;;;;;;7.75;100.00;104079.63;5001279;28;20258;-74
2021/12/17 09:41:06;;;;;;;;;;;;;;;7.78;100.00;104081.59;5003768;28;20447;-74
2021/12/17 09:43:36;;;;;;;;;;;;;;;7.84;100.00;104086.38;4985020;28;20007;-74
2021/12/17 09:46:04;;;;;;;;;;;;;;;7.88;100.00;104089.31;5005387;28;19929;-76
2021/12/17 09:48:29;;;;;;;;;;;;;;;7.94;100.00;104089.88;5002325;28;19922;-73
2021/12/17 09:50:56;;;;;;;;;;;;;;;8.00;100.00;104095.56;5003434;28;19925;-74
2021/12/17 09:53:22;;;;;;;;;;;;;;;8.04;100.00;104107.00;5001934;28;20031;-74
2021/12/17 09:55:47;;;;;;;;;;;;;;;8.05;100.00;104106.22;5002874;28;20383;-74
2021/12/17 09:58:12;;;;;;;;;;;;;;;8.07;100.00;104110.75;5004256;28;19926;-74
2021/12/17 10:00:38;;;;;;;;;;;;;;;8.10;100.00;104111.78;5003059;28;19926;-73
2021/12/17 10:03:06;;;;;;;;;;;;;;;8.14;100.00;104116.41;4999261;28;19918;-75
2021/12/17 10:05:32;;;;;;;;;;;;;;;8.17;100.00;104116.69;5003660;28;19922;-75
2021/12/17 10:08:02;;;;;;;;;;;;;;;8.22;100.00;104121.47;5002786;28;19929;-74
2021/12/17 10:10:39;;;;;;;;;;;;;;;8.26;100.00;104118.41;5003978;28;19972;-75
2021/12/17 10:13:09;;;;;;;;;;;;;;;8.27;100.00;104121.88;5001879;28;19972;-74
2021/12/17 10:15:35;;;;;;;;;;;;;;;8.26;100.00;104122.66;5004624;28;19961;-75
2021/12/17 10:18:03;;;;;;;;;;;;;;;8.28;100.00;104123.66;5000575;28;19922;-75
2021/12/17 10:20:32;;;;;;;;;;;;;;;8.31;100.00;104123.94;5000692;28;19925;-75
2021/12/17 10:23:07;;;;;;;;;;;;;;;8.27;100.00;104121.88;5000609;28;19925;-74
2021/12/17 10:25:33;;;;;;;;;;;;;;;8.22;100.00;104116.31;5004961;28;19929;-74
2021/12/17 10:28:03;;;;;;;;;;;;;;;8.22;100.00;104126.59;5004841;28;20277;-75
2021/12/17 10:30:29;;;;;;;;;;;;;;;8.20;100.00;104124.66;5003547;28;20304;-74
2021/12/17 10:32:56;;;;;;;;;;;;;;;8.21;100.00;104121.31;5005388;28;19921;-74
2021/12/17 10:35:26;;;;;;;;;;;;;;;8.20;100.00;104119.53;5006512;28;19925;-74
2021/12/17 10:37:56;;;;;;;;;;;;;;;8.24;100.00;104117.34;5006676;28;20341;-74
2021/12/17 10:40:21;;;;;;;;;;;;;;;8.28;100.00;104118.53;5000932;28;19925;-74
2021/12/17 10:43:15;;;;;;;;;;;;;;;8.30;100.00;104114.44;5002020;28;19964;-75
2021/12/17 10:45:43;;;;;;;;;;;;;;;8.29;100.00;104116.09;5004949;28;20376;-74
2021/12/17 10:48:25;;;;;;;;;;;;;;;8.32;100.00;104123.19;5002862;28;19960;-74
2021/12/17 10:50:52;;;;;;;;;;;;;;;8.35;100.00;104123.44;5008576;28;19937;-74
2021/12/17 10:53:24;;;;;;;;;;;;;;;8.38;100.00;104120.31;5002908;28;19965;-73
2021/12/17 10:55:49;;;;;;;;;;;;;;;8.34;100.00;104124.22;5008826;28;19925;-75
2021/12/17 10:58:15;;;;;;;;;;;;;;;8.34;100.00;104124.22;5007245;28;19921;-75
2021/12/17 11:00:47;;;;;;;;;;;;;;;8.37;100.00;104129.63;5005816;28;20001;-73
2021/12/17 11:03:12;;;;;;;;;;;;;;;8.29;100.00;104126.38;5002183;28;19983;-74
2021/12/17 11:05:37;;;;;;;;;;;;;;;8.17;100.00;104125.25;5009442;28;19926;-72
2021/12/17 11:08:17;;;;;;;;;;;;;;;8.06;100.00;104129.41;5009399;28;20415;-72
2021/12/17 11:10:47;;;;;;;;;;;;;;;7.97;100.00;104126.03;5008958;28;20004;-73
2021/12/17 11:13:16;;;;;;;;;;;;;;;7.91;100.00;104122.03;5003723;28;20294;-72
2021/12/17 11:15:41;;;;;;;;;;;;;;;7.89;100.00;104121.00;5005552;28;19921;-73
2021/12/17 11:18:07;;;;;;;;;;;;;;;7.89;100.00;104121.91;5007698;28;20098;-74
2021/12/17 11:20:36;;;;;;;;;;;;;;;7.91;100.00;104117.81;5005267;28;19921;-73
2021/12/17 11:23:06;;;;;;;;;;;;;;;7.91;100.00;104112.69;5009410;28;19939;-73
2021/12/17 11:25:31;;;;;;;;;;;;;;;7.90;100.00;104110.88;5008409;28;19968;-72
2021/12/17 11:27:56;;;;;;;;;;;;;;;7.93;100.00;104110.25;5004481;28;19921;-73
2021/12/17 11:30:23;;;;;;;;;;;;;;;7.91;100.00;104107.56;5007231;28;19976;-75
2021/12/17 11:32:49;;;;;;;;;;;;;;;7.91;100.00;104102.44;5004730;28;19964;-74
2021/12/17 11:35:16;;;;;;;;;;;;;;;7.95;100.00;104098.50;5003076;28;19987;-73
2021/12/17 11:37:43;;;;;;;;;;;;;;;8.03;100.00;104097.50;5001348;28;19929;-73
2021/12/17 11:40:25;;;;;;;;;;;;;;;8.08;100.00;104093.69;5004007;28;20450;-73
2021/12/17 11:43:01;;;;;;;;;;;;;;;8.03;100.00;104092.38;4999521;28;20510;-74
2021/12/17 11:45:27;;;;;;;;;;;;;;;7.99;100.00;104091.19;5005327;28;20259;-74
2021/12/17 11:47:54;;;;;;;;;;;;;;;7.94;100.00;104088.97;5004429;28;20368;-73
2021/12/17 11:50:19;;;;;;;;;;;;;;;7.95;100.00;104085.69;5002388;28;19921;-74
2021/12/17 11:52:46;;;;;;;;;;;;;;;8.01;100.00;104086.22;5006370;28;19918;-74
2021/12/17 11:55:35;;;;;;;;;;;;;;;8.00;100.00;104092.09;5003316;28;20036;-74
2021/12/17 11:58:07;;;;;;;;;;;;;;;7.95;100.00;104086.56;5007857;28;19917;-74
2021/12/17 12:00:41;;;;;;;;;;;;;;;7.94;100.00;104084.75;5006957;28;20454;-74
2021/12/17 12:03:12;;;;;;;;;;;;;;;7.95;100.00;104083.13;5005601;28;19926;-73
2021/12/17 12:05:40;;;;;;;;;;;;;;;8.00;100.00;104085.31;5008425;28;19929;-73
2021/12/17 12:08:30;;;;;;;;;;;;;;;8.10;100.00;104081.00;5000620;28;19918;-73
2021/12/17 12:11:06;;;;;;;;;;;;;;;8.21;100.00;104082.88;5001812;28;19984;-73
2021/12/17 12:13:33;;;;;;;;;;;;;;;8.27;100.00;104086.88;5002747;28;19918;-72
2021/12/17 12:16:03;;;;;;;;;;;;;;;8.32;100.00;104092.41;5004164;28;20323;-72
2021/12/17 12:18:39;;;;;;;;;;;;;;;8.36;100.00;104081.69;5002972;28;19949;-73
2021/12/17 12:21:04;;;;;;;;;;;;;;;8.42;100.00;104089.03;5000630;28;20569;-74
2021/12/17 12:23:29;;;;;;;;;;;;;;;8.42;100.00;104094.16;5000974;28;19926;-73
2021/12/17 12:26:01;;;;;;;;;;;;;;;8.35;100.00;104095.25;5006119;28;19983;-73
2021/12/17 12:28:47;;;;;;;;;;;;;;;8.23;100.00;104089.03;5005340;28;19925;-73
2021/12/17 12:31:15;;;;;;;;;;;;;;;8.13;100.00;104095.00;4998042;28;19957;-73
2021/12/17 12:33:59;;;;;;;;;;;;;;;8.03;100.00;104085.59;5000879;28;20388;-73
2021/12/17 12:36:44;;;;;;;;;;;;;;;7.99;100.00;104085.16;5001822;28;19918;-73
2021/12/17 12:39:15;;;;;;;;;;;;;;;8.03;100.00;104089.81;4998891;28;19918;-73
2021/12/17 12:41:44;;;;;;;;;;;;;;;8.11;100.00;104093.06;5007219;28;19928;-72
2021/12/17 12:44:09;;;;;;;;;;;;;;;8.09;100.00;104090.38;5005549;28;19987;-73
2021/12/17 12:46:54;;;;;;;;;;;;;;;8.11;100.00;104088.84;5006245;28;20388;-74
2021/12/17 12:50:02;;;;;;;;;;;;;;;8.18;100.00;104086.03;5002399;28;20060;-73
2021/12/17 12:52:30;;;;;;;;;;;;;;;8.26;100.00;104082.53;4961506;28;19921;-73
2021/12/17 12:54:57;;;;;;;;;;;;;;;8.31;100.00;104086.41;4957751;28;19925;-73
2021/12/17 12:57:24;;;;;;;;;;;;;;;8.34;100.00;104080.63;4970921;28;20008;-72
2021/12/17 12:59:53;;;;;;;;;;;;;;;8.33;100.00;104082.28;5006240;28;20800;-72
2021/12/17 13:02:19;;;;;;;;;;;;;;;8.35;100.00;104077.28;5003485;28;19961;-73
2021/12/17 13:04:45;;;;;;;;;;;;;;;8.31;100.00;104078.72;5002477;28;19988;-72
2021/12/17 13:07:12;;;;;;;;;;;;;;;8.26;100.00;104089.31;5001836;28;19921;-72
2021/12/17 13:09:42;;;;;;;;;;;;;;;8.10;100.00;104081.91;5000992;28;19925;-73
2021/12/17 13:12:08;;;;;;;;;;;;;;;8.04;100.00;104079.69;5003245;28;19969;-73
2021/12/17 13:14:33;;;;;;;;;;;;;;;8.05;100.00;104078.94;5002359;28;19968;-72
2021/12/17 13:17:40;;;;;;;;;;;;;;;8.06;100.00;104079.81;5002487;28;20040;-73
2021/12/17 13:22:56;;;;;;;;;;;;;;;7.92;100.00;104076.03;5000837;28;19937;-73
2021/12/17 13:25:27;;;;;;;;;;;;;;;7.92;100.00;104075.13;4999406;28;20219;-73
2021/12/17 13:27:54;;;;;;;;;;;;;;;7.84;100.00;104077.03;5004002;28;19932;-73
2021/12/17 13:30:23;;;;;;;;;;;;;;;7.77;100.00;104074.66;4999366;28;20039;-74
2021/12/17 13:32:50;;;;;;;;;;;;;;;7.70;100.00;104073.19;5002439;28;19918;-73
2021/12/17 13:35:17;;;;;;;;;;;;;;;7.71;100.00;104069.88;5005484;28;19925;-72
2021/12/17 13:37:42;;;;;;;;;;;;;;;7.69;100.00;104073.94;5006569;28;19925;-72
2021/12/17 13:40:09;;;;;;;;;;;;;;;7.67;100.00;104072.91;5005158;28;20299;-73
2021/12/17 13:42:39;;;;;;;;;;;;;;;7.65;100.00;104074.47;5007187;28;19992;-73
2021/12/17 13:45:06;;;;;;;;;;;;;;;7.66;100.00;104080.47;5003008;28;20396;-73
2021/12/17 13:47:40;;;;;;;;;;;;;;;7.68;100.00;104084.97;5001000;28;20116;-73
2021/12/17 13:50:31;;;;;;;;;;;;;;;7.65;100.00;104078.69;5004122;28;19952;-74
2021/12/17 13:53:01;;;;;;;;;;;;;;;7.75;100.00;104074.50;4995636;28;19917;-74
2021/12/17 13:55:31;;;;;;;;;;;;;;;7.71;100.00;104069.88;5004067;28;19925;-73
2021/12/17 13:57:57;;;;;;;;;;;;;;;7.64;100.00;104076.84;5003258;28;19921;-74
2021/12/17 14:00:23;;;;;;;;;;;;;;;7.59;100.00;104083.25;4999065;28;19953;-73
2021/12/17 14:02:49;;;;;;;;;;;;;;;7.52;100.00;104071.50;5003889;28;19953;-73
2021/12/17 14:05:17;;;;;;;;;;;;;;;7.51;100.00;104069.72;5003391;28;20047;-73
2021/12/17 14:07:47;;;;;;;;;;;;;;;7.53;100.00;104066.56;5003052;28;19917;-73
2021/12/17 14:10:16;;;;;;;;;;;;;;;7.60;100.00;104074.78;4983607;28;19925;-74
2021/12/17 14:12:43;;;;;;;;;;;;;;;7.52;100.00;104074.06;4990804;28;19921;-74
2021/12/17 14:15:15;;;;;;;;;;;;;;;7.45;100.00;104070.03;5001557;28;19943;-73
2021/12/17 14:17:46;;;;;;;;;;;;;;;7.39;100.00;104077.16;5002095;28;19949;-73
2021/12/17 14:20:19;;;;;;;;;;;;;;;7.38;100.00;104072.81;5008037;28;20008;-74
2021/12/17 14:22:46;;;;;;;;;;;;;;;7.40;100.00;104071.31;5005161;28;19926;-75
2021/12/17 14:25:24;;;;;;;;;;;;;;;7.41;100.00;104079.91;5003279;28;19969;-74
2021/12/17 14:27:50;;;;;;;;;;;;;;;7.38;100.00;104072.81;5003057;28;21425;-74
2021/12/17 14:30:16;;;;;;;;;;;;;;;7.36;100.00;104074.34;5006124;28;19975;-75
2021/12/17 14:32:42;;;;;;;;;;;;;;;7.30;100.00;104084.00;5005315;28;20377;-74
2021/12/17 14:35:08;;;;;;;;;;;;;;;7.22;100.00;104080.75;5005035;28;19925;-74
2021/12/17 14:38:06;;;;;;;;;;;;;;;7.12;100.00;104074.63;4989665;28;19935;-75
2021/12/17 14:40:40;;;;;;;;;;;;;;;7.07;100.00;104076.75;5004253;28;20354;-74
2021/12/17 14:43:22;;;;;;;;;;;;;;;7.08;100.00;104081.09;5001551;28;19925;-73
2021/12/17 14:49:00;;;;;;;;;;;;;;;7.14;100.00;104076.56;5005803;28;20001;-73
2021/12/17 15:04:46;;;;;;;;;;;;;;;7.37;100.00;104070.13;5007731;28;19929;-73
2021/12/17 15:07:11;;;;;;;;;;;;;;;7.38;100.00;104066.78;5005014;28;20295;-73
2021/12/17 15:09:42;;;;;;;;;;;;;;;7.39;100.00;104064.38;5001963;28;20442;-73
2021/12/17 15:12:25;;;;;;;;;;;;;;;7.36;100.00;104058.97;5001904;28;20433;-73
2021/12/17 15:14:50;;;;;;;;;;;;;;;7.37;100.00;104071.00;5007567;28;19972;-74
2021/12/17 15:17:15;;;;;;;;;;;;;;;7.39;100.00;104068.59;5006391;28;19926;-74
2021/12/17 15:19:41;;;;;;;;;;;;;;;7.39;100.00;104076.25;5010063;28;19930;-75
2021/12/17 15:22:06;;;;;;;;;;;;;;;7.39;100.00;104066.94;5008088;28;19922;-73
2021/12/17 15:24:31;;;;;;;;;;;;;;;7.37;99.55;104076.13;5009106;28;19928;-73
2021/12/17 15:26:57;;;;;;;;;;;;;;;7.39;99.65;104087.41;5009266;28;19925;-74
2021/12/17 15:29:24;;;;;;;;;;;;;;;7.39;99.27;104073.72;5006883;28;20364;-74
2021/12/17 15:31:51;;;;;;;;;;;;;;;7.38;99.60;104074.47;5007532;28;19931;-74
2021/12/17 15:34:17;;;;;;;;;;;;;;;7.38;99.29;104074.47;5004131;28;19922;-75
2021/12/17 15:36:42;;;;;;;;;;;;;;;7.35;99.12;104064.88;5007091;28;19928;-74
2021/12/17 15:39:07;;;;;;;;;;;;;;;7.37;99.38;104065.00;5004946;28;20907;-72
2021/12/17 15:41:32;;;;;;;;;;;;;;;7.36;99.18;104058.97;5002943;28;19921;-74
2021/12/17 15:43:58;;;;;;;;;;;;;;;7.41;99.78;104064.53;5002704;28;19929;-74
2021/12/17 15:46:23;;;;;;;;;;;;;;;7.39;98.74;104059.25;5002147;28;19992;-75
2021/12/17 15:48:48;;;;;;;;;;;;;;;7.38;98.83;104057.44;5002771;28;19928;-75
2021/12/17 15:51:14;;;;;;;;;;;;;;;7.37;97.99;104050.53;5005468;28;19924;-74